sensor_id;sensor_type;location;lat;lon;timestamp;pressure;altitude;pressure_sealevel;temperature;humidity
58686;BME280;44465;53.206;-6.106;2023-06-22T00:01:03;101763.00;;;25.77;50.42
58686;BME280;44465;53.206;-6.106;2023-06-22T00:03:29;101758.56;;;25.76;50.87
58686;BME280;44465;53.206;-6.106;2023-06-22T00:05:54;101768.28;;;25.79;50.61
58686;BME280;44465;53.206;-6.106;2023-06-22T00:08:21;101773.69;;;25.79;50.59
58686;BME280;44465;53.206;-6.106;2023-06-22T00:10:47;101762.91;;;25.79;50.46
58686;BME280;44465;53.206;-6.106;2023-06-22T00:13:13;101758.06;;;25.69;50.62
58686;BME280;44465;53.206;-6.106;2023-06-22T00:15:40;101762.31;;;25.74;50.47
58686;BME280;44465;53.206;-6.106;2023-06-22T00:18:07;101772.94;;;25.77;50.68
58686;BME280;44465;53.206;-6.106;2023-06-22T00:20:33;101768.69;;;25.73;50.69
58686;BME280;44465;53.206;-6.106;2023-06-22T00:23:04;101770.41;;;25.74;50.38
58686;BME280;44465;53.206;-6.106;2023-06-22T00:25:37;101774.75;;;25.76;50.67
58686;BME280;44465;53.206;-6.106;2023-06-22T00:28:03;101772.16;;;25.75;50.64
58686;BME280;44465;53.206;-6.106;2023-06-22T00:30:30;101774.94;;;25.73;50.36
58686;BME280;44465;53.206;-6.106;2023-06-22T00:32:56;101779.84;;;25.66;50.61
58686;BME280;44465;53.206;-6.106;2023-06-22T00:35:22;101779.66;;;25.69;50.49
58686;BME280;44465;53.206;-6.106;2023-06-22T00:37:48;101780.59;;;25.68;50.59
58686;BME280;44465;53.206;-6.106;2023-06-22T00:40:13;101778.91;;;25.67;50.52
58686;BME280;44465;53.206;-6.106;2023-06-22T00:42:40;101785.03;;;25.69;50.37
58686;BME280;44465;53.206;-6.106;2023-06-22T00:45:07;101778.19;;;25.64;50.96
58686;BME280;44465;53.206;-6.106;2023-06-22T00:47:37;101783.31;;;25.68;50.69
58686;BME280;44465;53.206;-6.106;2023-06-22T00:50:06;101787.16;;;25.64;50.78
58686;BME280;44465;53.206;-6.106;2023-06-22T00:52:33;101788.91;;;25.65;50.48
58686;BME280;44465;53.206;-6.106;2023-06-22T00:55:02;101790.66;;;25.66;50.81
58686;BME280;44465;53.206;-6.106;2023-06-22T00:57:28;101789.84;;;25.64;50.60
58686;BME280;44465;53.206;-6.106;2023-06-22T00:59:55;101797.00;;;25.65;50.68
58686;BME280;44465;53.206;-6.106;2023-06-22T01:02:20;101795.16;;;25.66;50.63
58686;BME280;44465;53.206;-6.106;2023-06-22T01:04:46;101797.00;;;25.65;50.81
58686;BME280;44465;53.206;-6.106;2023-06-22T01:10:14;101799.88;;;25.62;50.50
58686;BME280;44465;53.206;-6.106;2023-06-22T01:12:50;101798.13;;;25.61;50.32
58686;BME280;44465;53.206;-6.106;2023-06-22T01:15:52;101802.66;;;25.61;50.45
58686;BME280;44465;53.206;-6.106;2023-06-22T01:18:19;101799.88;;;25.62;50.42
58686;BME280;44465;53.206;-6.106;2023-06-22T01:20:47;101804.56;;;25.59;50.33
58686;BME280;44465;53.206;-6.106;2023-06-22T01:23:33;101806.38;;;25.58;50.33
58686;BME280;44465;53.206;-6.106;2023-06-22T01:28:49;101808.22;;;25.58;50.41
58686;BME280;44465;53.206;-6.106;2023-06-22T01:31:20;101809.28;;;25.55;50.45
58686;BME280;44465;53.206;-6.106;2023-06-22T01:33:53;101814.69;;;25.55;50.74
58686;BME280;44465;53.206;-6.106;2023-06-22T01:36:21;101827.22;;;25.56;50.52
58686;BME280;44465;53.206;-6.106;2023-06-22T01:38:47;101820.25;;;25.52;50.39
58686;BME280;44465;53.206;-6.106;2023-06-22T01:41:14;101827.38;;;25.53;50.57
58686;BME280;44465;53.206;-6.106;2023-06-22T01:43:41;101829.28;;;25.51;50.48
58686;BME280;44465;53.206;-6.106;2023-06-22T01:46:08;101838.00;;;25.56;50.80
58686;BME280;44465;53.206;-6.106;2023-06-22T01:48:34;101835.38;;;25.54;50.43
58686;BME280;44465;53.206;-6.106;2023-06-22T01:51:02;101836.31;;;25.53;50.18
58686;BME280;44465;53.206;-6.106;2023-06-22T01:53:27;101837.28;;;25.52;50.30
58686;BME280;44465;53.206;-6.106;2023-06-22T01:55:53;101837.38;;;25.51;50.45
58686;BME280;44465;53.206;-6.106;2023-06-22T01:58:20;101835.47;;;25.53;50.73
58686;BME280;44465;53.206;-6.106;2023-06-22T02:00:53;101840.88;;;25.53;50.61
58686;BME280;44465;53.206;-6.106;2023-06-22T02:03:23;101839.13;;;25.52;50.52
58686;BME280;44465;53.206;-6.106;2023-06-22T02:06:06;101839.03;;;25.53;50.37
58686;BME280;44465;53.206;-6.106;2023-06-22T02:08:48;101838.34;;;25.50;50.27
58686;BME280;44465;53.206;-6.106;2023-06-22T02:11:18;101839.22;;;25.50;50.53
58686;BME280;44465;53.206;-6.106;2023-06-22T02:13:45;101837.47;;;25.49;50.25
58686;BME280;44465;53.206;-6.106;2023-06-22T02:16:13;101834.00;;;25.47;50.29
58686;BME280;44465;53.206;-6.106;2023-06-22T02:18:46;101831.41;;;25.46;50.30
58686;BME280;44465;53.206;-6.106;2023-06-22T02:21:12;101838.59;;;25.45;50.11
58686;BME280;44465;53.206;-6.106;2023-06-22T02:23:37;101845.84;;;25.45;50.14
58686;BME280;44465;53.206;-6.106;2023-06-22T02:26:03;101843.94;;;25.47;50.33
58686;BME280;44465;53.206;-6.106;2023-06-22T02:28:30;101839.66;;;25.43;50.36
58686;BME280;44465;53.206;-6.106;2023-06-22T02:30:56;101852.09;;;25.45;50.58
58686;BME280;44465;53.206;-6.106;2023-06-22T02:33:21;101846.63;;;25.47;50.75
58686;BME280;44465;53.206;-6.106;2023-06-22T02:35:47;101843.22;;;25.43;50.25
58686;BME280;44465;53.206;-6.106;2023-06-22T02:38:14;101849.41;;;25.45;50.03
58686;BME280;44465;53.206;-6.106;2023-06-22T02:40:40;101847.84;;;25.41;50.30
58686;BME280;44465;53.206;-6.106;2023-06-22T02:43:05;101848.59;;;25.43;50.42
58686;BME280;44465;53.206;-6.106;2023-06-22T02:45:31;101855.75;;;25.44;50.49
58686;BME280;44465;53.206;-6.106;2023-06-22T02:47:57;101856.63;;;25.45;50.17
58686;BME280;44465;53.206;-6.106;2023-06-22T02:50:23;101849.50;;;25.44;50.55
58686;BME280;44465;53.206;-6.106;2023-06-22T02:52:48;101845.91;;;25.43;50.43
58686;BME280;44465;53.206;-6.106;2023-06-22T02:55:14;101841.63;;;25.39;50.18
58686;BME280;44465;53.206;-6.106;2023-06-22T02:57:42;101850.59;;;25.39;50.30
58686;BME280;44465;53.206;-6.106;2023-06-22T03:00:10;101854.00;;;25.43;50.55
58686;BME280;44465;53.206;-6.106;2023-06-22T03:02:44;101849.78;;;25.37;50.40
58686;BME280;44465;53.206;-6.106;2023-06-22T03:05:10;101844.41;;;25.37;50.47
58686;BME280;44465;53.206;-6.106;2023-06-22T03:07:41;101857.81;;;25.39;50.12
58686;BME280;44465;53.206;-6.106;2023-06-22T03:10:13;101862.19;;;25.42;50.19
58686;BME280;44465;53.206;-6.106;2023-06-22T03:12:39;101864.03;;;25.41;50.29
58686;BME280;44465;53.206;-6.106;2023-06-22T03:15:10;101856.94;;;25.38;50.23
58686;BME280;44465;53.206;-6.106;2023-06-22T03:17:37;101863.28;;;25.37;50.51
58686;BME280;44465;53.206;-6.106;2023-06-22T03:20:04;101859.81;;;25.35;50.33
58686;BME280;44465;53.206;-6.106;2023-06-22T03:22:41;101861.56;;;25.36;50.19
58686;BME280;44465;53.206;-6.106;2023-06-22T03:25:08;101867.91;;;25.35;50.28
58686;BME280;44465;53.206;-6.106;2023-06-22T03:27:43;101859.81;;;25.35;50.21
58686;BME280;44465;53.206;-6.106;2023-06-22T03:30:13;101862.53;;;25.35;50.39
58686;BME280;44465;53.206;-6.106;2023-06-22T03:32:39;101859.72;;;25.37;50.24
58686;BME280;44465;53.206;-6.106;2023-06-22T03:35:06;101872.41;;;25.35;50.38
58686;BME280;44465;53.206;-6.106;2023-06-22T03:37:33;101869.66;;;25.36;50.33
58686;BME280;44465;53.206;-6.106;2023-06-22T03:39:59;101867.38;;;25.29;49.97
58686;BME280;44465;53.206;-6.106;2023-06-22T03:42:26;101876.84;;;25.36;50.19
58686;BME280;44465;53.206;-6.106;2023-06-22T03:44:51;101862.69;;;25.32;50.41
58686;BME280;44465;53.206;-6.106;2023-06-22T03:47:17;101876.97;;;25.34;50.41
58686;BME280;44465;53.206;-6.106;2023-06-22T03:49:43;101871.72;;;25.31;50.04
58686;BME280;44465;53.206;-6.106;2023-06-22T03:52:09;101869.03;;;25.31;50.31
58686;BME280;44465;53.206;-6.106;2023-06-22T03:54:36;101879.72;;;25.33;50.52
58686;BME280;44465;53.206;-6.106;2023-06-22T03:57:02;101866.50;;;25.28;50.26
58686;BME280;44465;53.206;-6.106;2023-06-22T03:59:27;101873.63;;;25.29;50.50
58686;BME280;44465;53.206;-6.106;2023-06-22T04:01:53;101872.69;;;25.30;50.31
58686;BME280;44465;53.206;-6.106;2023-06-22T04:04:18;101863.28;;;25.21;50.29
58686;BME280;44465;53.206;-6.106;2023-06-22T04:06:44;101884.34;;;25.31;50.33
58686;BME280;44465;53.206;-6.106;2023-06-22T04:09:09;101887.91;;;25.31;50.31
58686;BME280;44465;53.206;-6.106;2023-06-22T04:11:35;101883.56;;;25.29;50.10
58686;BME280;44465;53.206;-6.106;2023-06-22T04:14:00;101890.75;;;25.28;50.24
58686;BME280;44465;53.206;-6.106;2023-06-22T04:16:26;101892.50;;;25.29;50.14
58686;BME280;44465;53.206;-6.106;2023-06-22T04:18:51;101888.25;;;25.25;50.22
58686;BME280;44465;53.206;-6.106;2023-06-22T04:21:17;101891.03;;;25.23;50.29
58686;BME280;44465;53.206;-6.106;2023-06-22T04:23:45;101897.09;;;25.27;49.89
58686;BME280;44465;53.206;-6.106;2023-06-22T04:26:11;101898.84;;;25.28;50.18
58686;BME280;44465;53.206;-6.106;2023-06-22T04:28:37;101898.84;;;25.28;50.08
58686;BME280;44465;53.206;-6.106;2023-06-22T04:31:03;101897.31;;;25.24;49.92
58686;BME280;44465;53.206;-6.106;2023-06-22T04:33:28;101902.50;;;25.27;50.28
58686;BME280;44465;53.206;-6.106;2023-06-22T04:35:58;101915.97;;;25.27;50.17
58686;BME280;44465;53.206;-6.106;2023-06-22T04:38:26;101906.19;;;25.26;50.01
58686;BME280;44465;53.206;-6.106;2023-06-22T04:40:52;101901.75;;;25.25;50.26
58686;BME280;44465;53.206;-6.106;2023-06-22T04:43:19;101911.56;;;25.26;50.14
58686;BME280;44465;53.206;-6.106;2023-06-22T04:45:44;101910.69;;;25.25;50.26
58686;BME280;44465;53.206;-6.106;2023-06-22T04:48:10;101904.44;;;25.25;50.16
58686;BME280;44465;53.206;-6.106;2023-06-22T04:50:38;101908.94;;;25.24;50.20
58686;BME280;44465;53.206;-6.106;2023-06-22T04:53:04;101908.88;;;25.26;49.97
58686;BME280;44465;53.206;-6.106;2023-06-22T04:55:31;101911.72;;;25.23;50.11
58686;BME280;44465;53.206;-6.106;2023-06-22T04:57:57;101910.00;;;25.22;49.92
58686;BME280;44465;53.206;-6.106;2023-06-22T05:00:30;101906.34;;;25.23;50.24
58686;BME280;44465;53.206;-6.106;2023-06-22T05:02:56;101901.13;;;25.20;50.29
58686;BME280;44465;53.206;-6.106;2023-06-22T05:05:23;101913.47;;;25.24;50.42
58686;BME280;44465;53.206;-6.106;2023-06-22T05:07:50;101916.19;;;25.24;50.17
58686;BME280;44465;53.206;-6.106;2023-06-22T05:10:19;101913.47;;;25.24;49.97
58686;BME280;44465;53.206;-6.106;2023-06-22T05:12:46;101917.13;;;25.23;49.93
58686;BME280;44465;53.206;-6.106;2023-06-22T05:15:11;101915.63;;;25.17;49.74
58686;BME280;44465;53.206;-6.106;2023-06-22T05:17:37;101924.31;;;25.22;50.03
58686;BME280;44465;53.206;-6.106;2023-06-22T05:20:11;101920.78;;;25.22;50.22
58686;BME280;44465;53.206;-6.106;2023-06-22T05:22:38;101924.41;;;25.21;49.86
58686;BME280;44465;53.206;-6.106;2023-06-22T05:25:07;101923.56;;;25.20;49.92
58686;BME280;44465;53.206;-6.106;2023-06-22T05:27:33;101930.66;;;25.21;49.78
58686;BME280;44465;53.206;-6.106;2023-06-22T05:29:58;101930.66;;;25.21;50.19
58686;BME280;44465;53.206;-6.106;2023-06-22T05:32:24;101925.38;;;25.20;49.92
58686;BME280;44465;53.206;-6.106;2023-06-22T05:34:49;101918.44;;;25.16;49.88
58686;BME280;44465;53.206;-6.106;2023-06-22T05:37:15;101929.97;;;25.18;49.92
58686;BME280;44465;53.206;-6.106;2023-06-22T05:39:40;101936.94;;;25.22;50.23
58686;BME280;44465;53.206;-6.106;2023-06-22T05:42:07;101928.22;;;25.17;49.92
58686;BME280;44465;53.206;-6.106;2023-06-22T05:44:33;101915.97;;;25.11;49.86
58686;BME280;44465;53.206;-6.106;2023-06-22T05:46:58;101921.03;;;25.17;50.19
58686;BME280;44465;53.206;-6.106;2023-06-22T05:49:24;101922.78;;;25.18;50.02
58686;BME280;44465;53.206;-6.106;2023-06-22T05:51:55;101925.28;;;25.21;50.27
58686;BME280;44465;53.206;-6.106;2023-06-22T05:54:20;101927.97;;;25.21;50.34
58686;BME280;44465;53.206;-6.106;2023-06-22T05:56:46;101927.97;;;25.21;50.21
58686;BME280;44465;53.206;-6.106;2023-06-22T05:59:11;101925.38;;;25.20;50.26
58686;BME280;44465;53.206;-6.106;2023-06-22T06:01:37;101911.31;;;25.15;49.81
58686;BME280;44465;53.206;-6.106;2023-06-22T06:04:03;101923.56;;;25.20;50.29
58686;BME280;44465;53.206;-6.106;2023-06-22T06:06:35;101928.06;;;25.20;50.28
58686;BME280;44465;53.206;-6.106;2023-06-22T06:09:05;101928.16;;;25.18;50.11
58686;BME280;44465;53.206;-6.106;2023-06-22T06:11:31;101936.16;;;25.20;49.91
58686;BME280;44465;53.206;-6.106;2023-06-22T06:13:56;101932.59;;;25.19;50.32
58686;BME280;44465;53.206;-6.106;2023-06-22T06:16:22;101932.59;;;25.19;50.20
58686;BME280;44465;53.206;-6.106;2023-06-22T06:18:48;101929.13;;;25.17;50.19
58686;BME280;44465;53.206;-6.106;2023-06-22T06:21:17;101935.22;;;25.21;50.31
58686;BME280;44465;53.206;-6.106;2023-06-22T06:23:42;101933.47;;;25.20;50.30
58686;BME280;44465;53.206;-6.106;2023-06-22T06:26:08;101928.06;;;25.20;50.31
58686;BME280;44465;53.206;-6.106;2023-06-22T06:28:34;101927.97;;;25.21;50.02
58686;BME280;44465;53.206;-6.106;2023-06-22T06:31:00;101929.13;;;25.17;50.38
58686;BME280;44465;53.206;-6.106;2023-06-22T06:33:26;101928.06;;;25.20;50.16
58686;BME280;44465;53.206;-6.106;2023-06-22T06:35:51;101921.81;;;25.19;50.06
58686;BME280;44465;53.206;-6.106;2023-06-22T06:38:17;101921.72;;;25.21;50.22
58686;BME280;44465;53.206;-6.106;2023-06-22T06:40:42;101921.13;;;25.16;50.31
58686;BME280;44465;53.206;-6.106;2023-06-22T06:43:09;101924.53;;;25.19;50.25
58686;BME280;44465;53.206;-6.106;2023-06-22T06:45:34;101922.84;;;25.17;50.17
58686;BME280;44465;53.206;-6.106;2023-06-22T06:48:00;101933.38;;;25.21;50.15
58686;BME280;44465;53.206;-6.106;2023-06-22T06:50:26;101936.16;;;25.20;50.26
58686;BME280;44465;53.206;-6.106;2023-06-22T06:52:51;101940.69;;;25.19;50.12
58686;BME280;44465;53.206;-6.106;2023-06-22T06:55:17;101929.13;;;25.17;50.18
58686;BME280;44465;53.206;-6.106;2023-06-22T06:57:43;101941.53;;;25.20;50.32
58686;BME280;44465;53.206;-6.106;2023-06-22T07:00:12;101941.72;;;25.17;49.94
58686;BME280;44465;53.206;-6.106;2023-06-22T07:02:43;101949.63;;;25.20;50.32
58686;BME280;44465;53.206;-6.106;2023-06-22T07:05:10;101954.06;;;25.21;50.41
58686;BME280;44465;53.206;-6.106;2023-06-22T07:07:36;101947.88;;;25.19;50.39
58686;BME280;44465;53.206;-6.106;2023-06-22T07:10:02;101943.44;;;25.18;50.38
58686;BME280;44465;53.206;-6.106;2023-06-22T07:12:28;101943.38;;;25.19;50.39
58686;BME280;44465;53.206;-6.106;2023-06-22T07:14:54;101946.00;;;25.21;50.54
58686;BME280;44465;53.206;-6.106;2023-06-22T07:17:19;101930.88;;;25.18;50.38
58686;BME280;44465;53.206;-6.106;2023-06-22T07:19:45;101940.00;;;25.16;50.46
58686;BME280;44465;53.206;-6.106;2023-06-22T07:22:10;101947.88;;;25.19;50.49
58686;BME280;44465;53.206;-6.106;2023-06-22T07:24:36;101949.72;;;25.18;50.31
58686;BME280;44465;53.206;-6.106;2023-06-22T07:27:03;101947.72;;;25.22;50.30
58686;BME280;44465;53.206;-6.106;2023-06-22T07:29:29;101935.72;;;25.12;50.31
58686;BME280;44465;53.206;-6.106;2023-06-22T07:31:54;101953.13;;;25.22;50.54
58686;BME280;44465;53.206;-6.106;2023-06-22T07:34:21;101960.41;;;25.20;50.57
58686;BME280;44465;53.206;-6.106;2023-06-22T07:36:47;101962.16;;;25.21;50.58
58686;BME280;44465;53.206;-6.106;2023-06-22T07:39:13;101968.41;;;25.21;50.40
58686;BME280;44465;53.206;-6.106;2023-06-22T07:41:40;101962.16;;;25.21;50.53
58686;BME280;44465;53.206;-6.106;2023-06-22T07:44:08;101972.94;;;25.21;50.37
58686;BME280;44465;53.206;-6.106;2023-06-22T07:46:34;101964.94;;;25.19;50.40
58686;BME280;44465;53.206;-6.106;2023-06-22T07:49:00;101963.91;;;25.22;50.57
58686;BME280;44465;53.206;-6.106;2023-06-22T07:51:26;101963.91;;;25.22;50.80
58686;BME280;44465;53.206;-6.106;2023-06-22T07:53:52;101973.63;;;25.24;50.49
58686;BME280;44465;53.206;-6.106;2023-06-22T07:56:17;101971.91;;;25.23;50.46
58686;BME280;44465;53.206;-6.106;2023-06-22T07:58:45;101977.22;;;25.25;50.45
58686;BME280;44465;53.206;-6.106;2023-06-22T08:01:12;101970.00;;;25.25;50.51
58686;BME280;44465;53.206;-6.106;2023-06-22T08:03:37;101967.41;;;25.24;50.55
58686;BME280;44465;53.206;-6.106;2023-06-22T08:06:03;101977.03;;;25.28;50.40
58686;BME280;44465;53.206;-6.106;2023-06-22T08:08:28;101967.41;;;25.24;50.85
58686;BME280;44465;53.206;-6.106;2023-06-22T08:10:54;101980.63;;;25.29;50.31
58686;BME280;44465;53.206;-6.106;2023-06-22T08:13:19;101963.16;;;25.02;49.70
58686;BME280;44465;53.206;-6.106;2023-06-22T08:15:45;101982.22;;;24.82;50.47
58686;BME280;44465;53.206;-6.106;2023-06-22T08:18:10;101983.84;;;25.02;50.16
58686;BME280;44465;53.206;-6.106;2023-06-22T08:20:36;101970.31;;;25.03;49.95
58686;BME280;44465;53.206;-6.106;2023-06-22T08:23:01;101971.00;;;25.07;50.33
58686;BME280;44465;53.206;-6.106;2023-06-22T08:25:32;101975.34;;;25.09;50.24
58686;BME280;44465;53.206;-6.106;2023-06-22T08:27:59;101973.53;;;25.10;50.32
58686;BME280;44465;53.206;-6.106;2023-06-22T08:30:25;101979.69;;;25.12;50.28
58686;BME280;44465;53.206;-6.106;2023-06-22T08:32:50;101968.22;;;25.08;50.14
58686;BME280;44465;53.206;-6.106;2023-06-22T08:35:16;101986.94;;;25.12;50.42
58686;BME280;44465;53.206;-6.106;2023-06-22T08:37:42;101987.72;;;25.14;50.62
58686;BME280;44465;53.206;-6.106;2023-06-22T08:40:08;101992.91;;;25.17;50.62
58686;BME280;44465;53.206;-6.106;2023-06-22T08:42:35;102001.00;;;25.17;50.69
58686;BME280;44465;53.206;-6.106;2023-06-22T08:45:01;101986.03;;;25.11;50.95
58686;BME280;44465;53.206;-6.106;2023-06-22T08:47:28;101981.63;;;25.10;50.50
58686;BME280;44465;53.206;-6.106;2023-06-22T08:49:53;101984.84;;;25.17;50.60
58686;BME280;44465;53.206;-6.106;2023-06-22T08:52:19;101975.50;;;25.06;50.73
58686;BME280;44465;53.206;-6.106;2023-06-22T08:54:46;101985.97;;;25.13;50.18
58686;BME280;44465;53.206;-6.106;2023-06-22T08:57:12;101992.06;;;25.16;50.60
58686;BME280;44465;53.206;-6.106;2023-06-22T08:59:37;101991.13;;;25.17;50.58
58686;BME280;44465;53.206;-6.106;2023-06-22T09:02:03;101993.09;;;25.14;50.67
58686;BME280;44465;53.206;-6.106;2023-06-22T09:04:29;101991.22;;;25.16;50.80
58686;BME280;44465;53.206;-6.106;2023-06-22T09:06:54;101995.00;;;25.12;50.27
58686;BME280;44465;53.206;-6.106;2023-06-22T09:09:21;101994.13;;;25.11;50.31
58686;BME280;44465;53.206;-6.106;2023-06-22T09:11:47;101991.53;;;25.09;50.25
58686;BME280;44465;53.206;-6.106;2023-06-22T09:14:12;102007.53;;;25.13;50.18
58686;BME280;44465;53.206;-6.106;2023-06-22T09:16:38;102005.78;;;25.12;50.46
58686;BME280;44465;53.206;-6.106;2023-06-22T09:19:03;101993.28;;;25.11;50.37
58686;BME280;44465;53.206;-6.106;2023-06-22T09:21:29;101987.97;;;25.09;50.69
58686;BME280;44465;53.206;-6.106;2023-06-22T09:23:55;101998.66;;;25.11;50.70
58686;BME280;44465;53.206;-6.106;2023-06-22T09:26:21;101986.81;;;25.13;50.34
58686;BME280;44465;53.206;-6.106;2023-06-22T09:28:46;101986.13;;;25.09;50.28
58686;BME280;44465;53.206;-6.106;2023-06-22T09:31:12;101989.53;;;25.13;50.43
58686;BME280;44465;53.206;-6.106;2023-06-22T09:33:39;101983.34;;;25.11;50.57
58686;BME280;44465;53.206;-6.106;2023-06-22T09:36:06;101984.31;;;25.10;50.49
58686;BME280;44465;53.206;-6.106;2023-06-22T09:38:38;101993.28;;;25.11;50.56
58686;BME280;44465;53.206;-6.106;2023-06-22T09:41:04;101988.13;;;25.06;50.39
58686;BME280;44465;53.206;-6.106;2023-06-22T09:43:32;101996.91;;;25.09;50.61
58686;BME280;44465;53.206;-6.106;2023-06-22T09:46:00;101988.22;;;25.04;50.42
58686;BME280;44465;53.206;-6.106;2023-06-22T09:48:26;101992.56;;;25.07;50.51
58686;BME280;44465;53.206;-6.106;2023-06-22T09:50:52;101991.69;;;25.06;50.28
58686;BME280;44465;53.206;-6.106;2023-06-22T09:53:17;101989.06;;;25.05;50.40
58686;BME280;44465;53.206;-6.106;2023-06-22T09:55:43;101992.72;;;25.04;50.39
58686;BME280;44465;53.206;-6.106;2023-06-22T09:58:08;101991.94;;;25.02;50.76
58686;BME280;44465;53.206;-6.106;2023-06-22T10:00:34;101990.91;;;25.04;50.64
58686;BME280;44465;53.206;-6.106;2023-06-22T10:03:00;101994.47;;;25.05;50.76
58686;BME280;44465;53.206;-6.106;2023-06-22T10:05:25;101992.81;;;25.02;50.34
58686;BME280;44465;53.206;-6.106;2023-06-22T10:07:51;101997.06;;;25.06;50.52
58686;BME280;44465;53.206;-6.106;2023-06-22T10:10:16;102002.47;;;25.06;50.33
58686;BME280;44465;53.206;-6.106;2023-06-22T10:12:45;102005.94;;;25.08;50.23
58686;BME280;44465;53.206;-6.106;2023-06-22T10:15:11;102004.19;;;25.07;50.66
58686;BME280;44465;53.206;-6.106;2023-06-22T10:17:37;101999.16;;;25.01;50.55
58686;BME280;44465;53.206;-6.106;2023-06-22T10:20:02;102016.72;;;25.08;50.72
58686;BME280;44465;53.206;-6.106;2023-06-22T10:22:38;102006.09;;;25.05;50.27
58686;BME280;44465;53.206;-6.106;2023-06-22T10:25:04;102006.28;;;25.02;50.53
58686;BME280;44465;53.206;-6.106;2023-06-22T10:27:30;102009.78;;;25.04;50.86
58686;BME280;44465;53.206;-6.106;2023-06-22T10:29:56;102000.00;;;25.02;50.36
58686;BME280;44465;53.206;-6.106;2023-06-22T10:32:22;102005.25;;;25.05;50.46
58686;BME280;44465;53.206;-6.106;2023-06-22T10:34:47;102001.69;;;25.04;51.04
58686;BME280;44465;53.206;-6.106;2023-06-22T10:37:13;102000.91;;;25.02;50.91
58686;BME280;44465;53.206;-6.106;2023-06-22T10:39:38;102013.44;;;25.03;50.81
58686;BME280;44465;53.206;-6.106;2023-06-22T10:42:04;102020.63;;;25.03;50.62
58686;BME280;44465;53.206;-6.106;2023-06-22T10:44:29;102023.16;;;25.06;50.76
58686;BME280;44465;53.206;-6.106;2023-06-22T10:46:55;102013.44;;;25.03;50.97
58686;BME280;44465;53.206;-6.106;2023-06-22T10:49:20;102017.78;;;25.06;50.69
58686;BME280;44465;53.206;-6.106;2023-06-22T10:51:46;102003.59;;;25.02;50.80
58686;BME280;44465;53.206;-6.106;2023-06-22T10:54:11;102015.16;;;25.04;50.85
58686;BME280;44465;53.206;-6.106;2023-06-22T10:56:39;102010.63;;;25.05;50.97
58686;BME280;44465;53.206;-6.106;2023-06-22T10:59:05;102010.72;;;25.03;50.66
58686;BME280;44465;53.206;-6.106;2023-06-22T11:01:30;102009.03;;;25.01;50.86
58686;BME280;44465;53.206;-6.106;2023-06-22T11:03:57;102019.66;;;25.04;50.97
58686;BME280;44465;53.206;-6.106;2023-06-22T11:06:22;102022.47;;;25.02;50.82
58686;BME280;44465;53.206;-6.106;2023-06-22T11:08:48;102018.81;;;25.03;50.70
58686;BME280;44465;53.206;-6.106;2023-06-22T11:11:13;102016.88;;;25.05;50.78
58686;BME280;44465;53.206;-6.106;2023-06-22T11:13:39;102022.47;;;25.02;50.72
58686;BME280;44465;53.206;-6.106;2023-06-22T11:16:04;102023.25;;;25.04;50.96
58686;BME280;44465;53.206;-6.106;2023-06-22T11:18:31;102021.56;;;25.02;50.99
58686;BME280;44465;53.206;-6.106;2023-06-22T11:20:58;102029.59;;;25.03;50.85
58686;BME280;44465;53.206;-6.106;2023-06-22T11:23:24;102024.13;;;25.05;50.82
58686;BME280;44465;53.206;-6.106;2023-06-22T11:25:51;102027.66;;;25.05;50.90
58686;BME280;44465;53.206;-6.106;2023-06-22T11:28:16;102029.41;;;25.06;50.71
58686;BME280;44465;53.206;-6.106;2023-06-22T11:30:42;102020.81;;;25.00;50.77
58686;BME280;44465;53.206;-6.106;2023-06-22T11:33:08;102032.09;;;25.06;50.75
58686;BME280;44465;53.206;-6.106;2023-06-22T11:35:33;102022.63;;;24.99;50.94
58686;BME280;44465;53.206;-6.106;2023-06-22T11:37:59;102025.94;;;25.04;50.70
58686;BME280;44465;53.206;-6.106;2023-06-22T11:40:24;102012.25;;;24.74;51.25
58686;BME280;44465;53.206;-6.106;2023-06-22T11:42:50;102017.31;;;24.80;52.07
58686;BME280;44465;53.206;-6.106;2023-06-22T11:45:15;102026.44;;;24.77;52.16
58686;BME280;44465;53.206;-6.106;2023-06-22T11:47:42;102024.63;;;24.78;52.25
58686;BME280;44465;53.206;-6.106;2023-06-22T11:50:08;102027.78;;;24.86;51.94
58686;BME280;44465;53.206;-6.106;2023-06-22T11:52:34;102031.03;;;24.93;51.97
58686;BME280;44465;53.206;-6.106;2023-06-22T11:55:01;102022.63;;;24.99;52.25
58686;BME280;44465;53.206;-6.106;2023-06-22T11:57:29;102037.78;;;25.18;52.91
58686;BME280;44465;53.206;-6.106;2023-06-22T11:59:55;102029.66;;;25.19;53.14
58686;BME280;44465;53.206;-6.106;2023-06-22T12:02:21;102029.19;;;25.27;54.13
58686;BME280;44465;53.206;-6.106;2023-06-22T12:04:46;102026.34;;;25.30;53.06
58686;BME280;44465;53.206;-6.106;2023-06-22T12:07:11;102035.13;;;25.34;53.16
58686;BME280;44465;53.206;-6.106;2023-06-22T12:09:37;102028.16;;;25.47;52.98
58686;BME280;44465;53.206;-6.106;2023-06-22T12:12:03;102025.75;;;25.59;52.65
58686;BME280;44465;53.206;-6.106;2023-06-22T12:14:29;102037.41;;;25.75;52.38
58686;BME280;44465;53.206;-6.106;2023-06-22T12:16:54;102044.38;;;25.63;52.40
58686;BME280;44465;53.206;-6.106;2023-06-22T12:19:20;102040.88;;;25.61;52.18
58686;BME280;44465;53.206;-6.106;2023-06-22T12:21:45;102040.97;;;25.60;52.24
58686;BME280;44465;53.206;-6.106;2023-06-22T12:24:11;102036.53;;;25.59;51.76
58686;BME280;44465;53.206;-6.106;2023-06-22T12:26:36;102032.94;;;25.58;51.99
58686;BME280;44465;53.206;-6.106;2023-06-22T12:29:02;102035.84;;;25.55;51.83
58686;BME280;44465;53.206;-6.106;2023-06-22T12:31:27;102035.84;;;25.55;51.97
58686;BME280;44465;53.206;-6.106;2023-06-22T12:33:53;102030.50;;;25.53;52.00
58686;BME280;44465;53.206;-6.106;2023-06-22T12:36:18;102035.75;;;25.57;51.57
58686;BME280;44465;53.206;-6.106;2023-06-22T12:38:44;102050.13;;;25.57;51.66
58686;BME280;44465;53.206;-6.106;2023-06-22T12:41:09;102041.22;;;25.55;51.75
58686;BME280;44465;53.206;-6.106;2023-06-22T12:43:34;102037.75;;;25.53;51.79